Time;durP1;ratioP1;P1;durP2;ratioP2;P2;SDS_P1;SDS_P2;PMS_P1;PMS_P2;Temp;Humidity;BMP_temperature;BMP_pressure;BME280_temperature;BME280_humidity;BME280_pressure;Samples;Min_cycle;Max_cycle;Signal;HPM_P1;HPM_P2
2023/12/28 00:00:17;;;;;;;32.40;4.85;;;11.50;83.10;;;;;;6305825;28;20059;-89
2023/12/28 00:03:19;;;;;;;25.83;4.07;;;11.60;83.20;;;;;;6309750;28;20131;-89
2023/12/28 00:06:20;;;;;;;28.88;4.65;;;11.60;84.30;;;;;;6306656;28;20422;-89
2023/12/28 00:09:22;;;;;;;34.58;5.47;;;11.70;82.80;;;;;;6306575;28;20052;-92
2023/12/28 00:12:24;;;;;;;29.85;4.57;;;11.70;85.20;;;;;;6287532;28;20079;-93
2023/12/28 00:15:26;;;;;;;26.27;4.43;;;11.60;88.80;;;;;;6308643;28;20048;-90
2023/12/28 00:18:27;;;;;;;28.42;4.45;;;11.70;89.40;;;;;;6311429;28;20046;-91
2023/12/28 00:21:29;;;;;;;29.58;4.72;;;11.70;89.70;;;;;;6312232;28;20498;-88
2023/12/28 00:24:31;;;;;;;27.48;4.53;;;11.70;87.90;;;;;;6311815;28;20603;-88
2023/12/28 00:27:37;;;;;;;32.13;4.28;;;11.70;87.90;;;;;;6315856;28;20500;-89
2023/12/28 00:30:39;;;;;;;32.38;4.70;;;11.80;84.50;;;;;;6299459;28;20109;-89
2023/12/28 00:33:41;;;;;;;28.42;4.70;;;11.90;81.70;;;;;;6328070;28;20048;-90
2023/12/28 00:36:43;;;;;;;27.63;4.75;;;11.90;83.90;;;;;;6329545;28;20066;-87
2023/12/28 00:39:46;;;;;;;27.48;4.35;;;11.90;87.20;;;;;;6312809;28;20059;-88
2023/12/28 00:42:48;;;;;;;32.00;5.13;;;11.90;89.10;;;;;;6302267;28;20055;-93
2023/12/28 00:45:50;;;;;;;27.73;4.72;;;11.80;90.50;;;;;;6328026;28;20058;-89
2023/12/28 00:48:52;;;;;;;31.85;5.18;;;11.90;90.50;;;;;;6321006;28;20500;-88
2023/12/28 00:51:54;;;;;;;34.55;4.95;;;11.90;88.40;;;;;;6332990;28;20050;-89
2023/12/28 00:54:55;;;;;;;34.22;5.30;;;11.90;90.50;;;;;;6330322;28;20052;-89
2023/12/28 00:57:57;;;;;;;33.03;5.28;;;11.90;91.60;;;;;;6313487;28;20040;-89
2023/12/28 01:00:59;;;;;;;40.95;5.68;;;11.80;90.60;;;;;;6304589;28;20045;-89
2023/12/28 01:04:01;;;;;;;25.25;4.32;;;11.80;93.30;;;;;;6329306;28;20182;-91
2023/12/28 01:07:05;;;;;;;31.27;4.72;;;11.80;94.30;;;;;;6310046;28;20435;-92
2023/12/28 01:10:07;;;;;;;29.70;4.90;;;11.70;96.00;;;;;;6321787;28;20052;-90
2023/12/28 01:13:09;;;;;;;30.10;5.95;;;11.60;99.10;;;;;;6315642;28;20068;-92
2023/12/28 01:16:10;;;;;;;35.58;5.38;;;11.50;99.90;;;;;;6305116;28;20059;-92
2023/12/28 01:19:12;;;;;;;34.65;5.78;;;11.30;99.90;;;;;;6319529;28;20055;-90
2023/12/28 01:22:14;;;;;;;36.17;5.18;;;11.10;99.90;;;;;;6311444;28;20052;-89
2023/12/28 01:25:15;;;;;;;33.55;5.28;;;11.00;99.90;;;;;;6306116;28;20094;-90
2023/12/28 01:28:17;;;;;;;38.40;5.40;;;11.10;99.90;;;;;;6323463;28;20054;-88
2023/12/28 01:31:19;;;;;;;34.55;6.00;;;11.20;99.90;;;;;;6314317;28;20153;-90
2023/12/28 01:34:22;;;;;;;36.15;5.95;;;11.20;99.90;;;;;;6312963;28;20059;-90
2023/12/28 01:37:24;;;;;;;33.75;5.50;;;11.40;99.90;;;;;;6305975;28;20051;-90
2023/12/28 01:40:25;;;;;;;30.33;5.00;;;11.40;99.90;;;;;;6327881;28;20048;-88
2023/12/28 01:43:27;;;;;;;42.15;5.90;;;11.40;99.90;;;;;;6308990;28;20121;-91
2023/12/28 01:46:29;;;;;;;31.42;4.70;;;11.40;99.90;;;;;;6313585;28;20079;-90
2023/12/28 01:49:31;;;;;;;30.40;5.32;;;11.50;99.90;;;;;;6293657;28;20495;-89
2023/12/28 01:52:33;;;;;;;34.40;5.43;;;11.50;99.90;;;;;;6312107;28;20584;-89
2023/12/28 01:55:34;;;;;;;30.30;5.10;;;11.50;99.90;;;;;;6286655;28;20053;-90
2023/12/28 01:58:36;;;;;;;36.08;5.28;;;11.60;99.90;;;;;;6312017;28;20067;-91
2023/12/28 02:01:38;;;;;;;32.78;5.20;;;11.50;99.90;;;;;;6314711;28;20059;-90
2023/12/28 02:04:39;;;;;;;31.33;4.95;;;11.50;99.90;;;;;;6313811;28;20551;-91
2023/12/28 02:07:41;;;;;;;40.92;6.30;;;11.50;99.90;;;;;;6289252;28;20685;-91
2023/12/28 02:10:43;;;;;;;35.50;5.95;;;11.50;99.90;;;;;;6309919;28;20055;-89
2023/12/28 02:13:46;;;;;;;39.95;6.30;;;11.60;99.90;;;;;;6299214;28;20052;-91
2023/12/28 02:16:49;;;;;;;33.28;5.32;;;11.70;99.90;;;;;;6312739;28;20051;-90
2023/12/28 02:19:51;;;;;;;34.67;5.25;;;11.70;99.90;;;;;;6299982;28;20110;-92
2023/12/28 02:22:52;;;;;;;33.40;5.88;;;11.70;99.90;;;;;;6327079;28;20051;-91
2023/12/28 02:25:54;;;;;;;30.38;4.97;;;11.60;99.90;;;;;;6297153;28;20133;-89
2023/12/28 02:28:56;;;;;;;30.15;5.38;;;11.70;99.90;;;;;;6311822;28;20044;-90
2023/12/28 02:31:57;;;;;;;36.15;5.78;;;11.70;99.90;;;;;;6322725;28;20060;-92
2023/12/28 02:34:59;;;;;;;33.22;4.55;;;11.60;99.90;;;;;;6333545;28;20048;-90
2023/12/28 02:38:01;;;;;;;34.15;5.35;;;11.60;99.90;;;;;;6331188;28;20052;-90
2023/12/28 02:41:03;;;;;;;35.78;5.68;;;11.50;99.90;;;;;;6331691;28;20075;-90
2023/12/28 02:44:04;;;;;;;35.33;5.10;;;11.50;99.90;;;;;;6316315;28;20093;-91
2023/12/28 02:47:06;;;;;;;30.45;5.00;;;11.50;99.90;;;;;;6329343;28;20055;-89
2023/12/28 02:50:07;;;;;;;32.65;5.68;;;11.50;99.90;;;;;;6312797;28;20040;-89
2023/12/28 02:53:09;;;;;;;33.00;5.20;;;11.50;99.90;;;;;;6304563;28;20051;-88
2023/12/28 02:56:11;;;;;;;34.30;6.25;;;11.50;99.90;;;;;;6329458;28;20044;-89
2023/12/28 02:59:13;;;;;;;33.17;5.63;;;11.50;99.90;;;;;;6307015;28;20079;-88
2023/12/28 03:02:14;;;;;;;33.33;5.55;;;11.50;99.90;;;;;;6324498;28;20055;-92
2023/12/28 03:05:16;;;;;;;31.63;5.88;;;11.50;99.60;;;;;;6327840;28;20055;-89
2023/12/28 03:08:18;;;;;;;33.17;6.10;;;11.50;99.00;;;;;;6302517;28;20059;-90
2023/12/28 03:11:20;;;;;;;36.10;5.90;;;11.60;98.40;;;;;;6328776;28;20063;-89
2023/12/28 03:14:22;;;;;;;31.00;5.30;;;11.60;97.10;;;;;;6312870;28;20060;-90
2023/12/28 03:17:23;;;;;;;32.13;5.80;;;11.70;95.40;;;;;;6310926;28;20488;-89
2023/12/28 03:20:25;;;;;;;32.75;6.07;;;11.60;96.20;;;;;;6328102;28;20055;-88
2023/12/28 03:23:27;;;;;;;35.92;6.03;;;11.60;95.80;;;;;;6302706;28;20056;-90
2023/12/28 03:26:28;;;;;;;34.92;5.68;;;11.60;95.50;;;;;;6310944;28;20060;-90
2023/12/28 03:29:30;;;;;;;34.08;5.90;;;11.60;94.10;;;;;;6311145;28;20056;-88
2023/12/28 03:32:32;;;;;;;36.75;6.28;;;11.60;93.70;;;;;;6295975;28;20813;-90
2023/12/28 03:35:34;;;;;;;45.90;6.50;;;11.70;93.20;;;;;;6305529;28;21905;-91
2023/12/28 03:38:35;;;;;;;41.47;5.90;;;11.80;93.40;;;;;;6283361;28;20407;-91
2023/12/28 03:41:37;;;;;;;37.00;6.45;;;11.80;93.20;;;;;;6308547;28;20483;-90
2023/12/28 03:44:39;;;;;;;37.65;6.00;;;11.80;93.80;;;;;;6294591;28;20395;-90
2023/12/28 03:47:40;;;;;;;37.47;6.10;;;11.80;94.20;;;;;;6295007;28;20048;-93
2023/12/28 03:50:42;;;;;;;32.03;5.53;;;11.80;95.30;;;;;;6328429;28;20487;-89
2023/12/28 03:53:44;;;;;;;37.70;5.63;;;11.90;94.90;;;;;;6311986;28;20059;-90
2023/12/28 03:56:45;;;;;;;34.50;5.72;;;11.80;95.70;;;;;;6304759;28;20048;-93
2023/12/28 03:59:47;;;;;;;28.70;6.00;;;11.70;97.10;;;;;;6306610;28;20087;-90
2023/12/28 04:02:49;;;;;;;30.00;5.63;;;11.60;98.00;;;;;;6308240;28;20055;-90
2023/12/28 04:05:52;;;;;;;34.88;6.38;;;11.60;98.00;;;;;;6317111;28;20067;-91
2023/12/28 04:08:54;;;;;;;37.75;5.95;;;11.60;98.30;;;;;;6307168;28;20066;-90
2023/12/28 04:11:55;;;;;;;34.88;6.20;;;11.60;98.80;;;;;;6299300;28;20055;-90
2023/12/28 04:14:57;;;;;;;37.88;6.53;;;11.60;99.50;;;;;;6297377;28;20077;-88
2023/12/28 04:17:59;;;;;;;43.28;6.63;;;11.70;98.20;;;;;;6307524;28;20056;-90
2023/12/28 04:21:01;;;;;;;45.00;6.97;;;11.70;98.10;;;;;;6287585;28;20059;-89
2023/12/28 04:24:03;;;;;;;43.72;6.45;;;11.80;97.00;;;;;;6294147;28;20052;-89
2023/12/28 04:27:05;;;;;;;37.63;5.93;;;11.80;96.20;;;;;;6306016;28;20062;-88
2023/12/28 04:30:07;;;;;;;37.88;6.57;;;11.90;94.70;;;;;;6298807;28;20052;-88
2023/12/28 04:33:08;;;;;;;41.40;6.90;;;11.90;95.20;;;;;;6331095;28;20056;-90
2023/12/28 04:36:10;;;;;;;32.92;6.15;;;11.90;93.40;;;;;;6331869;28;20048;-88
2023/12/28 04:39:12;;;;;;;37.78;5.85;;;11.90;92.80;;;;;;6313877;28;20113;-89
2023/12/28 04:42:14;;;;;;;39.67;6.90;;;11.80;91.80;;;;;;6349460;28;20482;-92
2023/12/28 04:45:16;;;;;;;33.45;5.93;;;11.90;90.80;;;;;;6317472;22;20078;-89
2023/12/28 04:48:23;;;;;;;33.20;5.78;;;11.90;89.80;;;;;;6280285;28;20135;-86
2023/12/28 04:51:25;;;;;;;28.50;4.78;;;11.80;90.30;;;;;;6296098;28;20500;-87
2023/12/28 04:54:27;;;;;;;37.53;6.32;;;11.80;88.20;;;;;;6320333;28;20044;-87
2023/12/28 04:57:29;;;;;;;38.78;5.95;;;11.80;90.20;;;;;;6320340;28;20040;-86
2023/12/28 05:00:30;;;;;;;38.75;6.38;;;11.80;88.00;;;;;;6317086;28;20075;-87
2023/12/28 05:03:32;;;;;;;31.83;5.63;;;11.80;88.00;;;;;;6300273;28;20190;-88
2023/12/28 05:06:34;;;;;;;36.25;5.68;;;11.80;89.10;;;;;;6313750;28;20047;-86
2023/12/28 05:09:36;;;;;;;28.85;5.75;;;11.90;86.50;;;;;;6295871;28;20048;-88
2023/12/28 05:12:38;;;;;;;37.28;5.60;;;11.90;85.20;;;;;;6307295;28;20054;-88
2023/12/28 05:15:45;;;;;;;35.92;5.40;;;11.80;89.40;;;;;;6320104;28;20108;-86
2023/12/28 05:18:47;;;;;;;34.67;5.65;;;11.70;90.30;;;;;;6306428;28;20060;-88
2023/12/28 05:21:49;;;;;;;29.70;4.97;;;11.70;90.20;;;;;;6307902;28;20059;-87
2023/12/28 05:24:51;;;;;;;35.92;5.60;;;11.70;86.20;;;;;;6284992;28;20052;-88
2023/12/28 05:27:52;;;;;;;40.85;6.13;;;11.70;85.90;;;;;;6310140;28;20084;-87
2023/12/28 05:30:54;;;;;;;39.65;5.38;;;11.70;85.60;;;;;;6283283;28;20080;-89
2023/12/28 05:33:58;;;;;;;34.08;4.68;;;11.60;87.90;;;;;;6324020;28;20051;-85
2023/12/28 05:37:00;;;;;;;36.75;5.70;;;11.50;87.80;;;;;;6309661;28;20135;-88
2023/12/28 05:40:02;;;;;;;33.45;5.57;;;11.60;87.90;;;;;;6284930;28;20061;-87
2023/12/28 05:43:04;;;;;;;29.73;5.45;;;11.60;88.20;;;;;;6299548;28;20044;-86
2023/12/28 05:46:06;;;;;;;30.83;5.63;;;11.60;89.80;;;;;;6289442;28;20484;-88
2023/12/28 05:49:07;;;;;;;34.78;5.40;;;11.60;90.70;;;;;;6322644;28;20041;-87
2023/12/28 05:52:09;;;;;;;36.92;5.78;;;11.70;90.80;;;;;;6305848;28;20067;-87
2023/12/28 05:55:11;;;;;;;39.00;6.20;;;11.70;91.10;;;;;;6327120;28;20523;-87
2023/12/28 05:58:13;;;;;;;30.02;5.60;;;11.70;91.60;;;;;;6322164;28;20479;-86
2023/12/28 06:01:15;;;;;;;44.28;6.28;;;11.70;92.00;;;;;;6321136;28;20048;-87
2023/12/28 06:04:16;;;;;;;29.10;5.43;;;11.70;92.70;;;;;;6287445;28;20044;-89
2023/12/28 06:07:18;;;;;;;38.35;6.05;;;11.60;93.70;;;;;;6328762;28;20105;-89
2023/12/28 06:10:20;;;;;;;38.65;6.25;;;11.60;94.30;;;;;;6324369;28;20114;-90
2023/12/28 06:13:22;;;;;;;32.05;5.80;;;11.60;94.10;;;;;;6284958;28;20117;-85
2023/12/28 06:16:25;;;;;;;39.50;5.40;;;11.60;93.80;;;;;;6324205;28;20436;-87
2023/12/28 06:19:27;;;;;;;28.40;4.65;;;11.60;94.40;;;;;;6306382;28;20055;-87
2023/12/28 06:22:29;;;;;;;30.38;5.55;;;11.60;92.80;;;;;;6306294;28;20121;-87
2023/12/28 06:25:31;;;;;;;24.73;4.18;;;11.40;93.70;;;;;;6280879;28;20472;-84
2023/12/28 06:28:32;;;;;;;25.20;4.43;;;11.40;91.80;;;;;;6302288;28;20043;-85
2023/12/28 06:31:36;;;;;;;18.17;3.05;;;11.30;91.50;;;;;;6306744;28;20048;-84
2023/12/28 06:34:38;;;;;;;20.38;3.05;;;11.30;90.80;;;;;;6324545;28;20064;-86
2023/12/28 06:37:40;;;;;;;17.05;3.00;;;11.20;84.90;;;;;;6302811;28;20049;-87
2023/12/28 06:40:41;;;;;;;16.27;3.13;;;11.10;87.70;;;;;;6305942;28;20052;-85
2023/12/28 06:43:43;;;;;;;16.73;3.00;;;11.00;89.60;;;;;;6295477;28;20045;-88
2023/12/28 06:46:45;;;;;;;21.35;3.60;;;11.00;90.60;;;;;;6324903;28;20063;-87
2023/12/28 06:49:46;;;;;;;23.45;4.10;;;11.00;92.40;;;;;;6309435;28;20047;-86
2023/12/28 06:52:48;;;;;;;24.05;4.25;;;10.90;93.80;;;;;;6351019;28;20055;-87
2023/12/28 06:55:50;;;;;;;29.35;5.05;;;10.80;96.80;;;;;;6326193;28;20048;-87
2023/12/28 06:58:51;;;;;;;37.33;5.40;;;10.80;99.90;;;;;;6342633;28;20047;-86
2023/12/28 07:01:53;;;;;;;36.40;6.07;;;10.80;99.90;;;;;;6307553;28;20056;-86
2023/12/28 07:04:55;;;;;;;33.50;6.93;;;10.80;99.90;;;;;;6306690;28;20411;-86
2023/12/28 07:07:56;;;;;;;46.15;6.55;;;10.90;99.90;;;;;;6317427;28;20551;-86
2023/12/28 07:10:58;;;;;;;42.55;7.13;;;10.90;99.90;;;;;;6310135;28;20047;-86
2023/12/28 07:14:00;;;;;;;43.03;6.38;;;10.90;99.90;;;;;;6335428;28;20043;-88
2023/12/28 07:17:01;;;;;;;41.85;6.72;;;10.90;99.90;;;;;;6335343;28;20055;-82
2023/12/28 07:20:03;;;;;;;41.60;5.95;;;11.00;99.90;;;;;;6331985;28;20055;-86
2023/12/28 07:23:05;;;;;;;35.90;6.30;;;11.00;99.90;;;;;;6317588;28;20075;-88
2023/12/28 07:26:06;;;;;;;46.38;6.82;;;11.00;99.90;;;;;;6330336;28;20058;-87
2023/12/28 07:29:08;;;;;;;57.75;7.68;;;11.00;99.90;;;;;;6314266;28;20605;-87
2023/12/28 07:32:10;;;;;;;43.08;7.18;;;11.00;98.90;;;;;;6329096;28;20067;-88
2023/12/28 07:35:12;;;;;;;40.38;7.07;;;11.00;99.20;;;;;;6306826;28;20171;-86
2023/12/28 07:38:13;;;;;;;45.17;7.05;;;11.00;97.60;;;;;;6330474;28;20439;-87
2023/12/28 07:41:15;;;;;;;39.63;6.40;;;11.10;97.20;;;;;;6305581;28;20124;-87
2023/12/28 07:44:17;;;;;;;44.13;6.35;;;11.10;96.80;;;;;;6332144;28;20067;-86
2023/12/28 07:47:18;;;;;;;41.97;6.60;;;11.00;96.60;;;;;;6305429;28;20055;-86
2023/12/28 07:50:20;;;;;;;44.28;7.38;;;10.90;96.60;;;;;;6343702;28;20056;-87
2023/12/28 07:53:22;;;;;;;47.28;7.20;;;10.80;96.60;;;;;;6331272;28;20048;-85
2023/12/28 07:56:24;;;;;;;48.13;7.72;;;10.90;95.40;;;;;;6348626;28;20120;-87
2023/12/28 07:59:25;;;;;;;46.45;7.50;;;10.90;95.80;;;;;;6344279;28;20105;-85
2023/12/28 08:02:27;;;;;;;46.90;7.40;;;10.90;95.80;;;;;;6321513;28;20048;-86
2023/12/28 08:05:29;;;;;;;44.45;7.45;;;10.90;96.00;;;;;;6330004;28;20047;-87
2023/12/28 08:08:31;;;;;;;44.78;6.72;;;11.00;95.80;;;;;;6304432;28;20061;-86
2023/12/28 08:11:32;;;;;;;40.08;6.97;;;11.00;95.30;;;;;;6337903;28;20491;-85
2023/12/28 08:14:34;;;;;;;37.97;6.45;;;10.90;94.50;;;;;;6337696;28;20043;-87
2023/12/28 08:17:35;;;;;;;45.05;7.10;;;10.80;95.30;;;;;;6324607;28;20403;-88
2023/12/28 08:20:37;;;;;;;39.58;6.57;;;10.90;94.10;;;;;;6372791;28;20066;-86
2023/12/28 08:23:39;;;;;;;48.13;6.82;;;10.90;92.80;;;;;;6310639;28;20048;-86
2023/12/28 08:26:41;;;;;;;44.28;6.68;;;11.00;91.90;;;;;;6322866;28;20052;-87
2023/12/28 08:29:43;;;;;;;43.90;6.30;;;10.90;92.10;;;;;;6331075;28;20048;-87
2023/12/28 08:32:44;;;;;;;38.92;6.45;;;10.90;92.00;;;;;;6308074;28;20052;-89
2023/12/28 08:35:46;;;;;;;41.72;7.07;;;10.90;92.40;;;;;;6376384;27;20062;-89
2023/12/28 08:38:48;;;;;;;40.38;7.13;;;11.00;92.50;;;;;;6326081;28;20055;-85
2023/12/28 08:41:50;;;;;;;44.15;6.97;;;11.00;92.50;;;;;;6356453;27;20051;-87
2023/12/28 08:44:51;;;;;;;43.00;6.90;;;11.00;93.20;;;;;;6321364;28;20049;-88
2023/12/28 08:47:53;;;;;;;46.13;6.93;;;11.00;93.40;;;;;;6302636;28;20052;-85
2023/12/28 08:50:55;;;;;;;33.80;7.32;;;11.10;93.20;;;;;;6288288;28;20053;-87
2023/12/28 08:53:56;;;;;;;49.83;7.45;;;11.20;93.10;;;;;;6285571;28;20515;-87
2023/12/28 08:56:58;;;;;;;40.08;6.43;;;11.20;93.70;;;;;;6306717;28;20052;-89
2023/12/28 09:00:02;;;;;;;40.35;6.05;;;11.10;94.40;;;;;;6300240;28;20118;-89
2023/12/28 09:03:04;;;;;;;40.28;6.43;;;11.10;95.60;;;;;;6307792;28;20044;-86
2023/12/28 09:06:05;;;;;;;37.33;6.95;;;11.00;95.80;;;;;;6300945;28;20048;-88
2023/12/28 09:09:08;;;;;;;32.55;6.22;;;11.20;94.60;;;;;;6308825;28;20127;-89
2023/12/28 09:12:10;;;;;;;37.67;6.32;;;11.20;95.90;;;;;;6301986;28;20051;-87
2023/12/28 09:15:12;;;;;;;44.13;6.55;;;11.20;96.70;;;;;;6315027;28;20090;-84
2023/12/28 09:18:14;;;;;;;38.15;5.65;;;11.30;96.40;;;;;;6299812;28;20060;-85
2023/12/28 09:21:16;;;;;;;37.38;6.88;;;11.40;95.80;;;;;;6324685;28;20056;-87
2023/12/28 09:24:18;;;;;;;37.38;6.15;;;11.50;97.10;;;;;;6290014;28;20048;-84
2023/12/28 09:27:20;;;;;;;40.53;6.38;;;11.50;95.90;;;;;;6309170;28;20686;-88
2023/12/28 09:30:22;;;;;;;41.75;7.10;;;11.50;96.40;;;;;;6301387;28;20053;-89
2023/12/28 09:33:24;;;;;;;38.50;5.80;;;11.60;95.90;;;;;;6315698;28;20423;-89
2023/12/28 09:36:25;;;;;;;34.72;5.55;;;11.70;93.80;;;;;;6315290;28;20055;-87
2023/12/28 09:39:27;;;;;;;36.80;5.60;;;11.90;91.50;;;;;;6290514;28;20404;-88
2023/12/28 09:42:29;;;;;;;36.42;5.80;;;11.90;86.90;;;;;;6306657;28;20054;-88
2023/12/28 09:45:31;;;;;;;40.92;6.20;;;12.10;84.10;;;;;;6290010;28;20567;-87
2023/12/28 09:48:32;;;;;;;20.50;3.83;;;12.30;74.00;;;;;;6307004;28;20055;-87
2023/12/28 09:51:34;;;;;;;26.77;3.63;;;12.50;65.50;;;;;;6313102;28;20415;-87
2023/12/28 09:54:36;;;;;;;25.50;3.88;;;12.40;66.60;;;;;;6326150;28;20048;-91
2023/12/28 09:57:38;;;;;;;18.23;2.75;;;12.40;68.00;;;;;;6337896;28;20052;-90
2023/12/28 10:00:40;;;;;;;23.67;3.60;;;12.50;62.60;;;;;;6304250;28;20499;-90
2023/12/28 10:03:42;;;;;;;26.77;4.25;;;12.50;65.90;;;;;;6327429;28;20048;-91
2023/12/28 10:06:44;;;;;;;26.70;3.83;;;12.60;62.10;;;;;;6335559;28;20051;-84
2023/12/28 10:09:45;;;;;;;25.45;3.67;;;12.60;62.00;;;;;;6307432;28;20055;-87
2023/12/28 10:12:47;;;;;;;23.52;3.50;;;12.90;53.20;;;;;;6308911;28;20100;-82
2023/12/28 10:15:49;;;;;;;25.02;5.43;;;13.30;51.00;;;;;;6321095;28;20047;-85
2023/12/28 10:18:51;;;;;;;21.77;3.40;;;13.50;37.70;;;;;;6323650;28;20048;-86
2023/12/28 10:21:53;;;;;;;24.95;3.38;;;13.40;24.20;;;;;;6324969;28;20059;-84
2023/12/28 10:24:54;;;;;;;23.92;2.60;;;13.30;30.00;;;;;;6320343;28;20048;-83
2023/12/28 10:27:56;;;;;;;21.60;3.40;;;13.20;30.10;;;;;;6303162;28;20410;-81
2023/12/28 10:30:58;;;;;;;23.25;3.60;;;13.10;36.50;;;;;;6302914;28;20134;-84
2023/12/28 10:34:03;;;;;;;22.40;3.70;;;13.10;36.50;;;;;;6276250;28;20084;-85
2023/12/28 10:37:06;;;;;;;26.27;4.00;;;13.20;31.70;;;;;;6313424;28;20117;-85
2023/12/28 10:40:07;;;;;;;20.42;3.22;;;13.40;28.90;;;;;;6319055;28;20143;-87
2023/12/28 10:43:09;;;;;;;25.52;2.90;;;13.30;26.70;;;;;;6323376;28;20040;-85
2023/12/28 10:46:11;;;;;;;21.67;3.13;;;13.30;28.40;;;;;;6307456;28;20784;-85
2023/12/28 10:49:12;;;;;;;26.88;3.60;;;13.50;36.50;;;;;;6316535;28;20059;-84
2023/12/28 10:52:16;;;;;;;24.65;3.60;;;13.60;25.10;;;;;;6302350;28;20047;-87
2023/12/28 10:55:19;;;;;;;21.02;3.92;;;13.50;24.50;;;;;;6299994;28;20095;-81
2023/12/28 10:58:21;;;;;;;26.38;4.15;;;13.20;28.80;;;;;;6326742;28;20099;-83
2023/12/28 11:01:23;;;;;;;23.98;3.95;;;13.00;37.90;;;;;;6317398;28;20056;-84
2023/12/28 11:04:25;;;;;;;25.27;5.40;;;12.90;45.70;;;;;;6301220;28;20098;-82
2023/12/28 11:07:32;;;;;;;27.85;4.30;;;12.70;46.50;;;;;;6336693;28;20091;-81
2023/12/28 11:10:34;;;;;;;29.20;4.70;;;12.70;59.70;;;;;;6296268;28;20044;-81
2023/12/28 11:13:35;;;;;;;28.23;4.88;;;12.70;65.20;;;;;;6317168;28;20419;-82
2023/12/28 11:16:37;;;;;;;23.77;4.93;;;12.80;67.40;;;;;;6307180;28;20055;-81
2023/12/28 11:19:38;;;;;;;24.70;5.00;;;13.10;70.70;;;;;;6318547;28;20495;-82
2023/12/28 11:22:40;;;;;;;32.28;5.18;;;13.30;60.00;;;;;;6317076;28;20775;-81
2023/12/28 11:25:42;;;;;;;23.17;4.10;;;13.30;62.80;;;;;;6303379;28;20048;-82
2023/12/28 11:28:43;;;;;;;25.02;4.22;;;13.30;58.60;;;;;;6297769;28;20055;-80
2023/12/28 11:31:45;;;;;;;24.05;4.07;;;13.30;57.10;;;;;;6318905;28;20525;-82
2023/12/28 11:34:47;;;;;;;18.23;3.03;;;13.50;48.60;;;;;;6327815;28;20059;-86
2023/12/28 11:37:49;;;;;;;18.40;2.80;;;13.40;51.00;;;;;;6317774;28;20143;-82
2023/12/28 11:40:52;;;;;;;18.05;3.20;;;13.40;43.00;;;;;;6302465;28;20475;-85
2023/12/28 11:43:54;;;;;;;14.93;2.83;;;13.70;35.70;;;;;;6320865;28;20403;-84
2023/12/28 11:46:56;;;;;;;12.13;2.45;;;14.20;29.80;;;;;;6321072;28;20139;-86
2023/12/28 11:49:58;;;;;;;24.50;3.78;;;14.70;11.90;;;;;;6331296;28;20043;-84
2023/12/28 11:52:59;;;;;;;13.75;2.50;;;15.00;1.00;;;;;;6332331;28;20047;-83
2023/12/28 11:56:02;;;;;;;13.57;2.22;;;14.80;9.10;;;;;;6320711;28;20532;-82
2023/12/28 11:59:04;;;;;;;15.90;2.70;;;14.30;4.60;;;;;;6335767;28;20050;-88
2023/12/28 12:02:07;;;;;;;16.63;3.03;;;13.90;17.30;;;;;;6330609;28;20078;-85
2023/12/28 12:05:10;;;;;;;14.05;2.50;;;13.80;16.10;;;;;;6323868;28;20174;-85
2023/12/28 12:08:14;;;;;;;19.92;2.58;;;13.80;19.70;;;;;;6355469;27;20138;-85
2023/12/28 12:11:16;;;;;;;19.30;3.05;;;13.60;24.00;;;;;;6333426;28;20129;-87
2023/12/28 12:14:17;;;;;;;22.23;2.97;;;13.50;27.10;;;;;;6336558;27;20460;-86
2023/12/28 12:17:19;;;;;;;21.80;3.60;;;13.60;33.90;;;;;;6328802;28;20063;-87
2023/12/28 12:20:20;;;;;;;18.40;2.78;;;13.80;18.30;;;;;;6355242;27;20043;-88
2023/12/28 12:23:22;;;;;;;23.00;3.38;;;14.00;26.10;;;;;;6333341;28;20149;-88
2023/12/28 12:26:26;;;;;;;19.08;2.90;;;13.90;29.40;;;;;;6356411;27;20055;-88
2023/12/28 12:29:27;;;;;;;21.58;3.17;;;14.20;22.00;;;;;;6343077;27;20502;-88
2023/12/28 12:32:31;;;;;;;17.50;3.58;;;14.00;18.40;;;;;;6331431;28;20090;-88
2023/12/28 12:35:33;;;;;;;21.55;3.20;;;13.80;20.50;;;;;;6356300;27;20055;-88
2023/12/28 12:38:35;;;;;;;23.08;4.13;;;13.90;22.80;;;;;;6349419;28;20486;-85
2023/12/28 12:41:37;;;;;;;22.35;4.63;;;13.60;28.40;;;;;;6372436;27;20058;-86
2023/12/28 12:44:39;;;;;;;29.52;4.70;;;13.50;33.10;;;;;;6352130;27;20047;-85
2023/12/28 12:47:40;;;;;;;26.45;5.10;;;13.40;43.20;;;;;;6355198;27;20065;-87
2023/12/28 12:50:42;;;;;;;24.50;4.45;;;13.30;48.50;;;;;;6330567;28;20051;-86
2023/12/28 12:53:44;;;;;;;25.85;4.47;;;13.30;45.80;;;;;;6370612;27;20055;-83
2023/12/28 12:56:46;;;;;;;29.08;4.88;;;13.30;42.80;;;;;;6329826;28;20128;-83
2023/12/28 12:59:47;;;;;;;25.75;3.90;;;13.40;42.20;;;;;;6350798;27;20260;-82
2023/12/28 13:02:49;;;;;;;24.98;4.38;;;13.60;30.10;;;;;;6348152;27;20051;-84
2023/12/28 13:05:51;;;;;;;25.58;4.15;;;13.60;29.00;;;;;;6348081;28;20054;-83
2023/12/28 13:08:52;;;;;;;20.38;4.38;;;13.60;24.90;;;;;;6361930;27;20075;-87
2023/12/28 13:11:54;;;;;;;20.83;3.85;;;13.70;25.40;;;;;;6326520;28;20403;-83
2023/12/28 13:14:56;;;;;;;22.58;4.10;;;13.60;18.30;;;;;;6335648;28;20085;-82
2023/12/28 13:17:58;;;;;;;18.95;4.05;;;13.60;16.10;;;;;;6334818;28;20052;-84
2023/12/28 13:20:59;;;;;;;18.70;3.47;;;13.50;17.30;;;;;;6370748;22;20060;-87
2023/12/28 13:24:02;;;;;;;18.85;3.40;;;13.50;17.70;;;;;;6321043;28;20047;-87
2023/12/28 13:27:04;;;;;;;20.90;3.75;;;13.60;14.10;;;;;;6324931;28;20055;-88
2023/12/28 13:30:06;;;;;;;22.20;3.85;;;13.60;16.00;;;;;;6305191;28;20059;-86
2023/12/28 13:33:08;;;;;;;24.48;3.92;;;13.30;24.90;;;;;;6321611;28;20413;-83
2023/12/28 13:36:09;;;;;;;21.20;3.78;;;13.20;33.50;;;;;;6307371;28;20176;-87
2023/12/28 13:39:14;;;;;;;22.42;4.45;;;13.10;41.00;;;;;;6334811;28;20043;-86
2023/12/28 13:42:15;;;;;;;22.73;4.05;;;13.30;45.40;;;;;;6307558;28;20153;-83
2023/12/28 13:45:17;;;;;;;22.33;3.72;;;13.20;48.50;;;;;;6345664;28;20499;-84
2023/12/28 13:48:19;;;;;;;28.48;4.47;;;13.20;52.90;;;;;;6304330;28;20562;-84
2023/12/28 13:51:21;;;;;;;24.15;3.95;;;13.10;59.40;;;;;;6329492;28;20071;-84
2023/12/28 13:54:23;;;;;;;29.02;4.60;;;13.10;62.60;;;;;;6304770;28;20063;-84
2023/12/28 13:57:24;;;;;;;22.65;4.15;;;12.90;79.30;;;;;;6347740;28;20075;-86
2023/12/28 14:00:26;;;;;;;18.25;3.70;;;12.70;88.00;;;;;;6302439;28;20055;-84
2023/12/28 14:03:27;;;;;;;28.88;4.85;;;12.60;90.90;;;;;;6346321;28;20059;-85
2023/12/28 14:06:29;;;;;;;23.65;4.65;;;12.70;85.00;;;;;;6307379;28;20075;-85
2023/12/28 14:09:32;;;;;;;23.88;4.53;;;12.70;81.60;;;;;;6328848;28;20051;-85
2023/12/28 14:12:34;;;;;;;31.00;4.28;;;12.70;80.40;;;;;;6304584;28;20051;-84
2023/12/28 14:15:37;;;;;;;22.27;4.13;;;12.70;77.60;;;;;;6325926;28;20063;-85
2023/12/28 14:18:41;;;;;;;28.08;4.65;;;12.70;73.90;;;;;;6302861;28;20052;-85
2023/12/28 14:21:43;;;;;;;27.67;4.50;;;12.80;74.20;;;;;;6344324;28;20103;-85
2023/12/28 14:24:45;;;;;;;22.73;4.18;;;12.70;71.60;;;;;;6302415;28;20126;-85
2023/12/28 14:27:47;;;;;;;19.85;3.45;;;12.70;70.70;;;;;;6325393;28;20052;-85
2023/12/28 14:30:48;;;;;;;20.45;3.80;;;12.70;67.90;;;;;;6318590;28;20058;-83
2023/12/28 14:33:50;;;;;;;22.52;3.70;;;12.70;62.30;;;;;;6337974;28;20066;-85
2023/12/28 14:36:52;;;;;;;23.83;3.92;;;12.70;60.40;;;;;;6302515;28;20423;-84
2023/12/28 14:39:54;;;;;;;24.83;4.15;;;12.70;58.00;;;;;;6326591;28;20388;-85
2023/12/28 14:42:56;;;;;;;23.98;3.72;;;12.80;57.90;;;;;;6303779;28;20052;-82
2023/12/28 14:45:58;;;;;;;20.05;3.83;;;12.70;56.50;;;;;;6327384;28;20131;-85
2023/12/28 14:49:01;;;;;;;20.55;3.50;;;12.70;56.00;;;;;;6320302;28;20143;-84
2023/12/28 14:52:03;;;;;;;21.70;3.72;;;12.70;58.70;;;;;;6343423;28;20477;-86
2023/12/28 14:55:05;;;;;;;24.80;3.78;;;12.70;56.80;;;;;;6302750;28;20052;-85
2023/12/28 14:58:06;;;;;;;18.77;3.15;;;12.60;57.90;;;;;;6319666;28;20075;-84
2023/12/28 15:01:08;;;;;;;20.08;3.63;;;12.50;58.80;;;;;;6320234;28;20075;-85
2023/12/28 15:04:10;;;;;;;18.75;3.17;;;12.40;62.10;;;;;;6301751;28;20466;-85
2023/12/28 15:07:12;;;;;;;20.52;3.10;;;12.40;61.20;;;;;;6342484;28;20449;-83
2023/12/28 15:10:13;;;;;;;15.20;3.30;;;12.30;67.50;;;;;;6319638;28;20052;-85
2023/12/28 15:13:16;;;;;;;19.92;3.63;;;12.30;65.80;;;;;;6337661;28;20055;-85
2023/12/28 15:16:18;;;;;;;22.63;3.90;;;12.30;69.60;;;;;;6319234;28;20056;-85
2023/12/28 15:19:19;;;;;;;25.13;3.38;;;12.40;69.00;;;;;;6324703;28;20526;-84
2023/12/28 15:22:21;;;;;;;21.98;4.15;;;12.30;69.10;;;;;;6301626;28;20059;-86
2023/12/28 15:25:23;;;;;;;20.30;3.55;;;12.30;72.20;;;;;;6325617;28;20051;-82
2023/12/28 15:28:24;;;;;;;19.63;3.50;;;12.20;72.10;;;;;;6325153;28;20446;-84
2023/12/28 15:31:26;;;;;;;30.23;3.97;;;12.20;77.00;;;;;;6326449;28;20051;-87
2023/12/28 15:34:28;;;;;;;22.15;3.83;;;12.20;82.00;;;;;;6317781;28;20056;-88